createdAt,value
2018-05-04T00:01:55.358Z,101921.81
2018-05-04T00:04:22.227Z,101923.86
2018-05-04T00:06:49.815Z,101923.69
2018-05-04T00:09:16.468Z,101925.05
2018-05-04T00:11:43.174Z,101919.56
2018-05-04T00:14:10.907Z,101918.22
2018-05-04T00:16:38.545Z,101916.45
2018-05-04T00:19:05.218Z,101917.23
2018-05-04T00:21:32.007Z,101921.25
2018-05-04T00:23:58.748Z,101922.25
2018-05-04T00:26:25.674Z,101928.70
2018-05-04T00:28:52.381Z,101927.18
2018-05-04T00:31:19.821Z,101927.73
2018-05-04T00:33:46.673Z,101933.77
2018-05-04T00:36:13.458Z,101933.83
2018-05-04T00:38:40.411Z,101933.58
2018-05-04T00:41:07.140Z,101931.28
2018-05-04T00:43:33.924Z,101925.45
2018-05-04T00:46:01.089Z,101920.94
2018-05-04T00:48:27.781Z,101916.94
2018-05-04T00:50:54.757Z,101926.41
2018-05-04T00:53:21.491Z,101929.17
2018-05-04T00:55:48.225Z,101924.39
2018-05-04T00:58:14.943Z,101923.92
2018-05-04T01:00:42.034Z,101927.41
2018-05-04T01:03:08.813Z,101926.33
2018-05-04T01:05:36.297Z,101925.28
2018-05-04T01:08:03.017Z,101930.82
2018-05-04T01:10:30.458Z,101932.27
2018-05-04T01:12:57.557Z,101928.33
2018-05-04T01:15:24.339Z,101930.73
2018-05-04T01:17:51.068Z,101941.60
2018-05-04T01:20:17.798Z,101944.78
2018-05-04T01:22:44.469Z,101948.33
2018-05-04T01:25:11.151Z,101954.67
2018-05-04T01:27:38.203Z,101949.37
2018-05-04T01:30:05.018Z,101954.27
2018-05-04T01:32:32.913Z,101957.30
2018-05-04T01:35:00.403Z,101960.18
2018-05-04T01:37:27.206Z,101962.03
2018-05-04T01:39:53.977Z,101969.77
2018-05-04T01:42:20.770Z,101970.36
2018-05-04T01:44:48.218Z,101975.85
2018-05-04T01:47:15.609Z,101981.30
2018-05-04T01:49:42.710Z,101984.85
2018-05-04T01:52:09.456Z,101982.48
2018-05-04T01:54:36.265Z,101989.70
2018-05-04T01:57:02.984Z,101989.66
2018-05-04T01:59:29.686Z,101993.14
2018-05-04T02:01:57.152Z,101990.89
2018-05-04T02:04:23.869Z,101987.52
2018-05-04T02:06:51.355Z,101990.00
2018-05-04T02:09:18.394Z,101982.26
2018-05-04T02:11:45.806Z,101977.96
2018-05-04T02:14:12.621Z,101978.63
2018-05-04T02:16:39.361Z,101988.95
2018-05-04T02:19:06.063Z,101982.22
2018-05-04T02:21:33.637Z,101978.92
2018-05-04T02:24:01.240Z,101978.11
2018-05-04T02:26:27.942Z,101979.99
2018-05-04T02:28:54.850Z,101980.61
2018-05-04T02:31:21.619Z,101981.88
2018-05-04T02:33:48.341Z,101980.10
2018-05-04T02:36:15.042Z,101975.66
2018-05-04T02:38:41.934Z,101978.62
2018-05-04T02:41:09.800Z,101974.77
2018-05-04T02:43:36.605Z,101970.32
2018-05-04T02:46:03.364Z,101963.88
2018-05-04T02:48:30.062Z,101970.49
2018-05-04T02:50:56.803Z,101964.02
2018-05-04T02:53:23.550Z,101956.21
2018-05-04T02:55:50.242Z,101965.57
2018-05-04T02:58:16.878Z,101965.43
2018-05-04T03:00:43.541Z,101963.86
2018-05-04T03:03:10.901Z,101954.31
2018-05-04T03:05:37.544Z,101946.38
2018-05-04T03:08:04.187Z,101956.23
2018-05-04T03:10:30.835Z,101957.25
2018-05-04T03:12:57.500Z,101957.45
2018-05-04T03:15:24.251Z,101951.67
2018-05-04T03:17:50.898Z,101953.76
2018-05-04T03:20:17.659Z,101949.82
2018-05-04T03:22:45.030Z,101951.09
2018-05-04T03:25:12.539Z,101944.52
2018-05-04T03:27:39.214Z,101948.61
2018-05-04T03:30:06.664Z,101944.16
2018-05-04T03:32:33.322Z,101943.95
2018-05-04T03:35:00.742Z,101944.50
2018-05-04T03:37:27.393Z,101942.15
2018-05-04T03:39:54.219Z,101947.88
2018-05-04T03:42:20.837Z,101941.53
2018-05-04T03:44:47.496Z,101941.28
2018-05-04T03:47:14.191Z,101943.91
2018-05-04T03:49:40.996Z,101948.25
2018-05-04T03:52:09.336Z,101950.24
2018-05-04T03:54:37.375Z,101957.83
2018-05-04T03:57:22.464Z,101950.14
2018-05-04T04:00:07.645Z,101961.09
2018-05-04T04:02:52.857Z,101957.81
2018-05-04T04:05:19.484Z,101961.50
2018-05-04T04:07:46.126Z,101960.98
2018-05-04T04:10:13.488Z,101961.80
2018-05-04T04:12:40.298Z,101965.22
2018-05-04T04:15:06.863Z,101971.22
2018-05-04T04:17:33.573Z,101973.28
2018-05-04T04:20:00.201Z,101968.33
2018-05-04T04:22:26.834Z,101968.19
2018-05-04T04:24:53.477Z,101966.91
2018-05-04T04:27:20.150Z,101977.97
2018-05-04T04:29:46.789Z,101979.80
2018-05-04T04:32:13.551Z,101979.03
2018-05-04T04:34:41.126Z,101981.55
2018-05-04T04:37:08.525Z,101981.92
2018-05-04T04:39:35.381Z,101990.83
2018-05-04T04:42:02.015Z,101992.16
2018-05-04T04:44:28.714Z,101991.61
2018-05-04T04:46:55.349Z,101999.23
2018-05-04T04:49:22.065Z,101995.96
2018-05-04T04:51:49.578Z,101999.58
2018-05-04T04:54:16.326Z,102000.05
2018-05-04T04:56:42.942Z,102000.61
2018-05-04T04:59:09.727Z,102003.95
2018-05-04T05:01:36.443Z,102011.38
2018-05-04T05:04:03.092Z,102013.47
2018-05-04T05:06:29.721Z,102013.73
2018-05-04T05:08:56.332Z,102007.78
2018-05-04T05:11:23.011Z,102014.69
2018-05-04T05:13:49.884Z,102016.59
2018-05-04T05:16:16.529Z,102020.67
2018-05-04T05:18:43.978Z,102028.32
2018-05-04T05:21:12.002Z,102024.81
2018-05-04T05:23:38.925Z,102026.17
2018-05-04T05:26:05.487Z,102032.11
2018-05-04T05:28:32.154Z,102037.91
2018-05-04T05:30:58.830Z,102035.05
2018-05-04T05:33:25.766Z,102035.41
2018-05-04T05:35:53.157Z,102034.02
2018-05-04T05:38:19.852Z,102040.30
2018-05-04T05:40:46.554Z,102043.28
2018-05-04T05:43:13.257Z,102046.18
2018-05-04T05:45:39.926Z,102041.55
2018-05-04T05:48:06.730Z,102041.47
2018-05-04T05:50:34.174Z,102045.43
2018-05-04T05:53:01.769Z,102048.27
2018-05-04T05:55:28.420Z,102048.83
2018-05-04T05:57:55.060Z,102044.48
2018-05-04T06:00:21.834Z,102044.58
2018-05-04T06:02:48.640Z,102041.48
2018-05-04T06:05:15.324Z,102044.49
2018-05-04T06:07:41.997Z,102046.30
2018-05-04T06:10:08.617Z,102050.64
2018-05-04T06:12:36.169Z,102046.19
2018-05-04T06:15:03.608Z,102049.23
2018-05-04T06:17:30.254Z,102050.20
2018-05-04T06:19:56.911Z,102047.63
2018-05-04T06:22:24.263Z,102054.81
2018-05-04T06:24:51.637Z,102054.01
2018-05-04T06:27:18.483Z,102056.91
2018-05-04T06:29:45.126Z,102055.06
2018-05-04T06:32:11.773Z,102053.89
2018-05-04T06:34:38.436Z,102055.13
2018-05-04T06:37:05.056Z,102051.41
2018-05-04T06:39:31.959Z,102054.33
2018-05-04T06:41:59.344Z,102049.41
2018-05-04T06:44:25.968Z,102057.30
2018-05-04T06:46:52.621Z,102054.49
2018-05-04T06:49:19.228Z,102062.63
2018-05-04T06:51:46.603Z,102063.58
2018-05-04T06:54:13.537Z,102061.86
2018-05-04T06:56:40.955Z,102065.85
2018-05-04T06:59:07.764Z,102065.74
2018-05-04T07:01:34.461Z,102069.04
2018-05-04T07:04:01.864Z,102076.92
2018-05-04T07:06:28.662Z,102069.24
2018-05-04T07:08:56.223Z,102070.94
2018-05-04T07:11:22.833Z,102069.42
2018-05-04T07:13:49.497Z,102062.98
2018-05-04T07:16:17.065Z,102061.19
2018-05-04T07:18:44.664Z,102062.95
2018-05-04T07:21:11.281Z,102061.56
2018-05-04T07:23:37.896Z,102057.08
2018-05-04T07:26:05.273Z,102056.77
2018-05-04T07:28:32.068Z,102057.47
2018-05-04T07:30:59.536Z,102050.71
2018-05-04T07:33:26.157Z,102050.64
2018-05-04T07:35:52.980Z,102059.34
2018-05-04T07:38:19.638Z,102059.87
2018-05-04T07:40:46.294Z,102061.19
2018-05-04T07:43:13.241Z,102063.28
2018-05-04T07:45:39.865Z,102064.06
2018-05-04T07:48:06.513Z,102061.38
2018-05-04T07:50:33.140Z,102065.50
2018-05-04T07:52:59.812Z,102068.25
2018-05-04T07:55:27.197Z,102065.11
2018-05-04T07:57:53.863Z,102060.52
2018-05-04T08:00:20.572Z,102063.56
2018-05-04T08:02:47.186Z,102065.72
2018-05-04T08:05:13.898Z,102069.92
2018-05-04T08:07:40.688Z,102068.77
2018-05-04T08:10:07.315Z,102065.02
2018-05-04T08:12:34.720Z,102066.84
2018-05-04T08:15:01.383Z,102069.90
2018-05-04T08:17:28.044Z,102067.63
2018-05-04T08:19:55.420Z,102071.66
2018-05-04T08:22:22.070Z,102078.06
2018-05-04T08:24:48.693Z,102075.09
2018-05-04T08:27:16.092Z,102075.14
2018-05-04T08:29:42.745Z,102068.92
2018-05-04T08:32:09.369Z,102068.60
2018-05-04T08:34:36.415Z,102071.02
2018-05-04T08:37:03.442Z,102068.83
2018-05-04T08:39:30.256Z,102056.73
2018-05-04T08:41:56.906Z,102056.35
2018-05-04T08:44:23.607Z,102055.51
2018-05-04T08:46:50.367Z,102061.26
2018-05-04T08:49:16.932Z,102062.88
2018-05-04T08:51:43.645Z,102055.77
2018-05-04T08:54:11.156Z,102067.29
2018-05-04T08:56:37.773Z,102056.73
2018-05-04T08:59:05.223Z,102055.70
2018-05-04T09:01:31.871Z,102050.31
2018-05-04T09:03:58.511Z,102048.19
2018-05-04T09:06:25.147Z,102046.20
2018-05-04T09:08:51.817Z,102042.58
2018-05-04T09:11:18.434Z,102044.91
2018-05-04T09:13:46.017Z,102044.90
2018-05-04T09:16:13.030Z,102041.92
2018-05-04T09:18:39.711Z,102045.77
2018-05-04T09:21:06.364Z,102044.55
2018-05-04T09:23:33.970Z,102034.42
2018-05-04T09:26:00.596Z,102037.39
2018-05-04T09:28:27.249Z,102035.20
2018-05-04T09:30:53.992Z,102039.84
2018-05-04T09:33:21.326Z,102036.00
2018-05-04T09:35:48.089Z,102035.88
2018-05-04T09:38:14.736Z,102036.05
2018-05-04T09:40:41.414Z,102030.49
2018-05-04T09:43:08.817Z,102022.03
2018-05-04T09:45:35.545Z,102029.00
2018-05-04T09:48:02.169Z,102024.26
2018-05-04T09:50:29.560Z,102023.50
2018-05-04T09:52:56.216Z,102024.29
2018-05-04T09:55:23.009Z,102032.34
2018-05-04T09:57:49.662Z,102032.64
2018-05-04T10:00:16.556Z,102025.30
2018-05-04T10:02:43.229Z,102025.50
2018-05-04T10:05:09.971Z,102022.57
2018-05-04T10:07:36.626Z,102024.95
2018-05-04T10:10:03.237Z,102007.66
2018-05-04T10:12:29.928Z,102010.71
2018-05-04T10:14:56.609Z,102010.89
2018-05-04T10:17:24.029Z,102001.16
2018-05-04T10:19:50.674Z,102011.74
2018-05-04T10:22:17.509Z,102008.24
2018-05-04T10:24:44.143Z,102009.15
2018-05-04T10:27:10.817Z,102011.70
2018-05-04T10:29:37.703Z,102001.80
2018-05-04T10:32:04.395Z,102005.70
2018-05-04T10:34:31.104Z,102007.16
2018-05-04T10:36:57.740Z,101999.77
2018-05-04T10:39:24.451Z,101997.64
2018-05-04T10:41:51.082Z,101993.39
2018-05-04T10:44:17.757Z,101993.80
2018-05-04T10:46:44.387Z,102005.66
2018-05-04T10:49:11.275Z,101999.26
2018-05-04T10:51:37.908Z,101993.03
2018-05-04T10:54:05.268Z,101999.59
2018-05-04T10:56:31.982Z,101992.81
2018-05-04T10:58:58.653Z,101994.38
2018-05-04T11:01:26.110Z,101994.26
2018-05-04T11:03:52.749Z,101989.70
2018-05-04T11:06:20.164Z,101997.08
2018-05-04T11:08:46.803Z,101988.73
2018-05-04T11:11:13.413Z,102005.30
2018-05-04T11:13:40.318Z,101999.10
2018-05-04T11:16:06.972Z,101992.27
2018-05-04T11:18:34.401Z,101995.73
2018-05-04T11:21:01.084Z,101998.62
2018-05-04T11:23:27.909Z,101999.25
2018-05-04T11:25:55.441Z,102002.03
2018-05-04T11:28:23.671Z,101995.86
2018-05-04T11:30:50.476Z,101997.98
2018-05-04T11:33:17.129Z,101995.03
2018-05-04T11:35:44.600Z,102002.48
2018-05-04T11:38:11.214Z,101996.57
2018-05-04T11:40:38.689Z,101993.35
2018-05-04T11:43:06.091Z,101986.84
2018-05-04T11:45:32.757Z,101998.17
2018-05-04T11:48:00.129Z,101994.34
2018-05-04T11:50:27.608Z,101986.16
2018-05-04T11:52:54.273Z,101996.43
2018-05-04T11:55:21.114Z,101999.16
2018-05-04T11:57:47.760Z,101996.03
2018-05-04T12:00:14.422Z,101999.01
2018-05-04T12:02:41.064Z,101998.88
2018-05-04T12:05:07.694Z,101994.05
2018-05-04T12:07:34.363Z,101993.19
2018-05-04T12:10:01.844Z,101995.72
2018-05-04T12:12:28.527Z,101996.92
2018-05-04T12:14:55.290Z,101992.20
2018-05-04T12:17:21.920Z,101997.05
2018-05-04T12:19:48.536Z,101997.44
2018-05-04T12:22:15.170Z,101993.83
2018-05-04T12:24:41.910Z,101999.92
2018-05-04T12:27:08.548Z,102000.91
2018-05-04T12:29:35.231Z,102001.72
2018-05-04T12:32:02.800Z,102003.61
2018-05-04T12:34:29.548Z,101999.92
2018-05-04T12:36:56.212Z,101992.26
2018-05-04T12:39:22.876Z,102006.27
2018-05-04T12:41:49.513Z,102003.66
2018-05-04T12:44:16.341Z,102000.83
2018-05-04T12:46:43.001Z,102009.14
2018-05-04T12:49:09.714Z,101995.59
2018-05-04T12:51:37.342Z,102006.16
2018-05-04T12:54:04.073Z,102003.42
2018-05-04T12:56:30.687Z,102000.34
2018-05-04T12:58:57.333Z,102001.16
2018-05-04T13:01:24.137Z,101996.73
2018-05-04T13:03:50.778Z,101990.92
2018-05-04T13:06:17.436Z,101995.69
2018-05-04T13:08:44.885Z,101986.84
2018-05-04T13:11:11.687Z,102000.48
2018-05-04T13:13:39.202Z,101994.82
2018-05-04T13:16:05.879Z,101995.25
2018-05-04T13:18:32.604Z,101995.77
2018-05-04T13:20:59.236Z,101991.89
2018-05-04T13:23:25.953Z,101997.91
2018-05-04T13:25:52.621Z,101981.12
2018-05-04T13:28:19.313Z,101987.96
2018-05-04T13:30:46.010Z,101992.03
2018-05-04T13:33:13.545Z,101983.63
2018-05-04T13:35:40.212Z,101973.31
2018-05-04T13:38:06.855Z,101972.52
2018-05-04T13:40:33.525Z,101976.88
2018-05-04T13:43:00.244Z,101976.48
2018-05-04T13:45:26.897Z,101970.41
2018-05-04T13:47:53.694Z,101973.66
2018-05-04T13:50:21.088Z,101963.59
2018-05-04T13:52:47.754Z,101964.77
2018-05-04T13:55:14.398Z,101966.67
2018-05-04T13:57:41.218Z,101963.70
2018-05-04T14:00:07.873Z,101968.55
2018-05-04T14:02:34.606Z,101974.09
2018-05-04T14:05:01.345Z,101974.84
2018-05-04T14:07:27.991Z,101961.05
2018-05-04T14:09:54.668Z,101970.72
2018-05-04T14:12:21.315Z,101959.88
2018-05-04T14:14:48.714Z,101953.29
2018-05-04T14:17:15.500Z,101957.31
2018-05-04T14:19:42.172Z,101957.81
2018-05-04T14:22:08.850Z,101958.02
2018-05-04T14:24:35.540Z,101954.90
2018-05-04T14:27:02.516Z,101956.03
2018-05-04T14:29:29.166Z,101950.59
2018-05-04T14:31:55.815Z,101959.05
2018-05-04T14:34:22.420Z,101954.48
2018-05-04T14:36:49.106Z,101948.83
2018-05-04T14:39:15.812Z,101949.48
2018-05-04T14:41:42.448Z,101947.08
2018-05-04T14:44:09.111Z,101945.59
2018-05-04T14:46:35.732Z,101945.81
2018-05-04T14:49:02.592Z,101953.41
2018-05-04T14:51:29.361Z,101952.36
2018-05-04T14:53:55.963Z,101949.80
2018-05-04T14:56:22.591Z,101957.58
2018-05-04T14:58:49.288Z,101954.31
2018-05-04T15:01:16.856Z,101958.97
2018-05-04T15:03:43.528Z,101946.52
2018-05-04T15:06:10.208Z,101945.59
2018-05-04T15:08:37.614Z,101950.94
2018-05-04T15:11:04.232Z,101955.75
2018-05-04T15:13:30.926Z,101943.56
2018-05-04T15:15:57.609Z,101945.28
2018-05-04T15:18:24.997Z,101950.51
2018-05-04T15:20:51.701Z,101944.55
2018-05-04T15:23:18.328Z,101949.01
2018-05-04T15:25:45.764Z,101948.66
2018-05-04T15:28:13.163Z,101957.62
2018-05-04T15:30:39.821Z,101939.30
2018-05-04T15:33:06.510Z,101948.47
2018-05-04T15:35:33.205Z,101949.12
2018-05-04T15:37:59.832Z,101951.11
2018-05-04T15:40:26.489Z,101967.52
2018-05-04T15:42:53.137Z,101955.56
2018-05-04T15:45:19.759Z,101948.23
2018-05-04T15:47:46.500Z,101953.33
2018-05-04T15:50:19.506Z,101951.75
2018-05-04T15:52:46.192Z,101952.30
2018-05-04T15:55:13.017Z,101957.25
2018-05-04T15:57:39.677Z,101956.75
2018-05-04T16:00:07.064Z,101959.95
2018-05-04T16:02:33.692Z,101965.36
2018-05-04T16:05:00.410Z,101959.86
2018-05-04T16:07:27.800Z,101953.25
2018-05-04T16:09:54.406Z,101965.19
2018-05-04T16:12:21.149Z,101957.25
2018-05-04T16:14:47.909Z,101957.39
2018-05-04T16:17:14.736Z,101964.15
2018-05-04T16:19:41.384Z,101955.89
2018-05-04T16:22:08.045Z,101959.86
2018-05-04T16:24:34.696Z,101959.78
2018-05-04T16:27:01.346Z,101958.66
2018-05-04T16:29:28.032Z,101955.80
2018-05-04T16:31:54.791Z,101954.35
2018-05-04T16:34:21.507Z,101965.87
2018-05-04T16:36:48.161Z,101957.04
2018-05-04T16:39:14.963Z,101957.69
2018-05-04T16:41:42.386Z,101955.03
2018-05-04T16:44:09.011Z,101951.48
2018-05-04T16:46:41.748Z,101956.81
2018-05-04T16:49:15.107Z,101953.94
2018-05-04T16:51:41.727Z,101953.61
2018-05-04T16:54:08.520Z,101958.41
2018-05-04T16:56:35.977Z,101956.89
2018-05-04T16:59:03.398Z,101966.36
2018-05-04T17:01:30.107Z,101960.42
2018-05-04T17:03:56.741Z,101964.94
2018-05-04T17:06:23.399Z,101963.73
2018-05-04T17:08:50.099Z,101968.74
2018-05-04T17:11:16.824Z,101962.47
2018-05-04T17:13:44.233Z,101969.13
2018-05-04T17:16:11.004Z,101971.59
2018-05-04T17:18:38.409Z,101977.08
2018-05-04T17:21:05.158Z,101968.26
2018-05-04T17:23:31.850Z,101971.39
2018-05-04T17:25:58.517Z,101979.53
2018-05-04T17:28:25.935Z,101982.09
2018-05-04T17:30:52.581Z,101983.09
2018-05-04T17:33:19.296Z,101981.34
2018-05-04T17:35:45.949Z,101976.73
2018-05-04T17:38:12.806Z,101979.98
2018-05-04T17:40:39.516Z,101984.19
2018-05-04T17:43:06.142Z,101984.41
2018-05-04T17:45:32.807Z,101992.89
2018-05-04T17:47:59.527Z,101991.31
2018-05-04T17:50:26.214Z,101991.98
2018-05-04T17:52:53.601Z,101996.81
2018-05-04T17:55:20.339Z,102000.14
2018-05-04T17:57:46.994Z,101993.94
2018-05-04T18:00:13.778Z,101996.09
2018-05-04T18:02:42.994Z,101993.94
2018-05-04T18:05:10.429Z,102003.06
2018-05-04T18:07:37.082Z,102010.55
2018-05-04T18:10:03.741Z,102002.25
2018-05-04T18:12:30.428Z,102007.16
2018-05-04T18:14:57.104Z,102007.39
2018-05-04T18:17:23.982Z,102010.22
2018-05-04T18:19:50.717Z,102014.18
2018-05-04T18:22:17.420Z,102009.09
2018-05-04T18:24:44.129Z,102019.52
2018-05-04T18:27:10.805Z,102017.25
2018-05-04T18:29:37.465Z,102019.00
2018-05-04T18:32:04.858Z,102017.77
2018-05-04T18:34:31.560Z,102023.00
2018-05-04T18:36:58.984Z,102030.23
2018-05-04T18:39:25.629Z,102024.78
2018-05-04T18:41:52.432Z,102029.87
2018-05-04T18:44:19.203Z,102036.05
2018-05-04T18:46:46.564Z,102032.45
2018-05-04T18:49:13.241Z,102032.73
2018-05-04T18:51:40.714Z,102040.17
2018-05-04T18:54:07.441Z,102039.92
2018-05-04T18:56:34.119Z,102038.48
2018-05-04T18:59:00.870Z,102044.99
2018-05-04T19:01:27.749Z,102052.17
2018-05-04T19:03:55.231Z,102057.25
2018-05-04T19:06:21.944Z,102064.33
2018-05-04T19:08:49.353Z,102064.73
2018-05-04T19:11:15.995Z,102065.92
2018-05-04T19:13:42.718Z,102071.58
2018-05-04T19:16:09.395Z,102082.00
2018-05-04T19:18:36.093Z,102081.99
2018-05-04T19:21:02.738Z,102082.97
2018-05-04T19:23:29.443Z,102087.92
2018-05-04T19:25:56.801Z,102081.28
2018-05-04T19:28:24.307Z,102087.52
2018-05-04T19:30:51.149Z,102091.31
2018-05-04T19:33:17.813Z,102094.20
2018-05-04T19:35:44.480Z,102093.31
2018-05-04T19:38:11.919Z,102099.75
2018-05-04T19:40:39.407Z,102103.53
2018-05-04T19:43:06.134Z,102109.54
2018-05-04T19:45:33.216Z,102115.98
2018-05-04T19:47:59.943Z,102110.86
2018-05-04T19:50:26.719Z,102112.91
2018-05-04T19:52:53.372Z,102118.61
2018-05-04T19:55:20.044Z,102115.09
2018-05-04T19:57:47.499Z,102116.69
2018-05-04T20:00:14.975Z,102118.14
2018-05-04T20:02:41.902Z,102120.02
2018-05-04T20:05:09.653Z,102131.63
2018-05-04T20:07:36.268Z,102133.53
2018-05-04T20:10:02.936Z,102142.91
2018-05-04T20:12:30.423Z,102144.23
2018-05-04T20:14:57.046Z,102141.00
2018-05-04T20:17:24.633Z,102138.86
2018-05-04T20:19:51.333Z,102142.39
2018-05-04T20:22:18.730Z,102143.34
2018-05-04T20:24:45.473Z,102150.17
2018-05-04T20:27:12.148Z,102157.39
2018-05-04T20:29:38.865Z,102153.30
2018-05-04T20:32:05.545Z,102147.04
2018-05-04T20:34:32.988Z,102151.50
2018-05-04T20:36:59.646Z,102149.34
2018-05-04T20:39:26.630Z,102154.23
2018-05-04T20:41:53.272Z,102147.55
2018-05-04T20:44:19.900Z,102148.47
2018-05-04T20:46:46.731Z,102150.20
2018-05-04T20:49:13.481Z,102145.28
2018-05-04T20:51:40.189Z,102138.55
2018-05-04T20:54:06.948Z,102142.64
2018-05-04T20:56:33.713Z,102148.25
2018-05-04T20:59:00.429Z,102148.02
2018-05-04T21:01:27.061Z,102152.48
2018-05-04T21:03:54.513Z,102152.01
2018-05-04T21:06:22.031Z,102155.06
2018-05-04T21:08:48.752Z,102152.73
2018-05-04T21:11:15.385Z,102152.48
2018-05-04T21:13:42.089Z,102158.09
2018-05-04T21:16:09.491Z,102157.00
2018-05-04T21:18:36.221Z,102160.73
2018-05-04T21:23:26.142Z,102166.16
2018-05-04T21:25:52.820Z,102162.07
2018-05-04T21:28:20.241Z,102166.91
2018-05-04T21:30:46.905Z,102166.47
2018-05-04T21:33:13.599Z,102172.37
2018-05-04T21:35:40.221Z,102172.33
2018-05-04T21:38:06.916Z,102177.45
2018-05-04T21:40:33.560Z,102175.48
2018-05-04T21:43:00.317Z,102176.11
2018-05-04T21:45:27.753Z,102169.50
2018-05-04T21:47:54.460Z,102168.91
2018-05-04T21:50:21.140Z,102167.56
2018-05-04T21:52:47.863Z,102166.97
2018-05-04T21:55:14.501Z,102167.33
2018-05-04T21:57:41.234Z,102168.14
2018-05-04T22:00:08.105Z,102164.57
2018-05-04T22:02:35.591Z,102166.03
2018-05-04T22:05:02.302Z,102166.95
2018-05-04T22:07:29.878Z,102163.89
2018-05-04T22:09:57.355Z,102171.14
2018-05-04T22:12:24.014Z,102169.28
2018-05-04T22:14:50.717Z,102174.23
2018-05-04T22:17:18.125Z,102169.36
2018-05-04T22:19:44.776Z,102175.95
2018-05-04T22:22:11.401Z,102178.35
2018-05-04T22:24:38.248Z,102177.33
2018-05-04T22:27:04.891Z,102180.95
2018-05-04T22:29:31.708Z,102185.03
2018-05-04T22:31:58.376Z,102185.59
2018-05-04T22:34:25.156Z,102184.53
2018-05-04T22:36:51.848Z,102183.80
2018-05-04T22:39:18.520Z,102190.31
2018-05-04T22:41:45.924Z,102190.10
2018-05-04T22:44:12.652Z,102190.66
2018-05-04T22:46:39.467Z,102192.33
2018-05-04T22:49:06.997Z,102196.31
2018-05-04T22:51:34.448Z,102193.38
2018-05-04T22:54:01.123Z,102189.64
2018-05-04T22:56:28.617Z,102192.60
2018-05-04T22:58:55.248Z,102192.48
2018-05-04T23:01:22.049Z,102191.54
2018-05-04T23:03:48.656Z,102191.54
2018-05-04T23:06:15.308Z,102201.37
2018-05-04T23:08:41.970Z,102195.75
2018-05-04T23:11:09.330Z,102198.03
2018-05-04T23:13:36.741Z,102205.39
2018-05-04T23:16:03.363Z,102200.98
2018-05-04T23:18:29.997Z,102203.02
2018-05-04T23:20:56.681Z,102202.14
2018-05-04T23:23:23.436Z,102200.52
2018-05-04T23:25:51.018Z,102204.44
2018-05-04T23:28:17.670Z,102201.20
2018-05-04T23:30:44.485Z,102201.20
2018-05-04T23:33:11.828Z,102200.56
2018-05-04T23:35:39.262Z,102197.07
2018-05-04T23:38:06.090Z,102198.54
2018-05-04T23:40:32.740Z,102194.11
2018-05-04T23:42:59.381Z,102204.33
2018-05-04T23:45:26.057Z,102207.80
2018-05-04T23:47:53.418Z,102206.22
2018-05-04T23:50:20.123Z,102203.02
2018-05-04T23:52:47.449Z,102210.81
2018-05-04T23:55:14.096Z,102208.41
2018-05-04T23:57:40.762Z,102214.42
